Terminal Aerodrome Forecast
Issued by NWS Charleston, SC

Home | Current Version | Previous Version | Text Only | Print | Product List | Glossary On
Versions: 1 2 3 4 5 6 7 8 9 10 11 12 13 14 15 16 17 18
235
FTUS42 KCHS 240242 AAC
TAFCHS
TAF AMD
KCHS 240242Z 2403/2424 04006KT P6SM SCT250
     FM241000 VRB03KT 2SM BR BCFG BKN003
     FM241500 07005KT P6SM SCT025
     FM242000 12009KT P6SM SCT040=

USA.gov is the U.S. government's official web portal to all federal, state and local government web resources and services.